KOMH

Orange County Airport

Orange, Virginia, USA
METAR KOMH 212335Z AUTO 27007KT 4SM +RA SCT014 BKN020 OVC026 22/22 A2981 RMK AO2 P0009
Observed Flight Rules
Jun-21 @ 23:35 UTC (17 minutes ago) Marginal Visual Flight Rules
Wind Visibility Clouds Conditions
270° at 7 knots 4 miles
  • Scattered at 1,400' AGL
  • Broken at 2,000' AGL
  • Overcast at 2,600' AGL
  • Heavy Rain
Temperatures Readings Precipitation
Current 22°C / 72°F
Dewpoint 22°C / 72°F
Humidity 100%
Altimeter 29.81" Hg
Pressure 1009 hPa
Elevation 142
Current Rain 0.09
METAR KOMH 212335Z AUTO 27007KT 4SM +RA SCT014 BKN020 OVC026 22/22 A2981 RMK AO2 P0009
Observed Flight Rules
Jun-21 @ 23:35 UTC
(17 minutes ago)
MVFR
Wind Visibility
270° at 7 knots 4 miles
Clouds
  • Scattered at 1,400' AGL
  • Broken at 2,000' AGL
  • Overcast at 2,600' AGL
Conditions
  • Heavy Rain
Temperature Dewpoint
22°C / 72°F 22°C / 72°F
Humidity Altimeter Pressure
100% 29.81" Hg 1009 hPa
Current Rain
0.09